createdAt,value
2019-05-17T00:02:17.316Z,11.08
2019-05-17T00:04:47.068Z,11.33
2019-05-17T00:07:17.928Z,11.06
2019-05-17T00:09:48.223Z,11.02
2019-05-17T00:12:18.568Z,10.94
2019-05-17T00:14:49.001Z,11.08
2019-05-17T00:17:19.540Z,10.87
2019-05-17T00:19:50.018Z,11.02
2019-05-17T00:22:20.755Z,10.94
2019-05-17T00:24:52.525Z,11.25
2019-05-17T00:27:22.938Z,11.06
2019-05-17T00:29:53.428Z,10.85
2019-05-17T00:32:27.292Z,10.76
2019-05-17T00:34:57.152Z,10.87
2019-05-17T00:37:27.597Z,11.12
2019-05-17T00:39:59.030Z,10.83
2019-05-17T00:42:29.339Z,10.91
2019-05-17T00:44:59.692Z,11.40
2019-05-17T00:47:30.094Z,11.29
2019-05-17T00:50:00.432Z,10.80
2019-05-17T00:52:30.861Z,11.00
2019-05-17T00:55:01.593Z,11.13
2019-05-17T00:57:32.214Z,11.06
2019-05-17T01:00:02.682Z,11.23
2019-05-17T01:02:36.210Z,11.41
2019-05-17T01:05:06.814Z,11.26
2019-05-17T01:07:37.799Z,11.10
2019-05-17T01:10:09.845Z,11.00
2019-05-17T01:12:40.137Z,10.74
2019-05-17T01:15:11.488Z,10.71
2019-05-17T01:17:42.062Z,10.60
2019-05-17T01:20:12.833Z,10.45
2019-05-17T01:22:43.605Z,10.86
2019-05-17T01:25:17.141Z,10.80
2019-05-17T01:27:47.655Z,10.87
2019-05-17T01:30:18.377Z,10.73
2019-05-17T01:32:48.893Z,11.08
2019-05-17T01:35:19.243Z,11.17
2019-05-17T01:37:49.934Z,11.31
2019-05-17T01:40:20.273Z,11.48
2019-05-17T01:42:50.724Z,11.35
2019-05-17T01:45:22.034Z,11.34
2019-05-17T01:47:52.446Z,11.14
2019-05-17T01:50:23.136Z,10.48
2019-05-17T01:52:53.910Z,10.80
2019-05-17T01:55:26.418Z,10.81
2019-05-17T01:57:56.548Z,11.09
2019-05-17T02:00:27.508Z,11.43
2019-05-17T02:02:57.897Z,11.13
2019-05-17T02:05:28.165Z,11.39
2019-05-17T02:07:58.913Z,11.44
2019-05-17T02:10:29.258Z,10.84
2019-05-17T02:12:59.666Z,10.64
2019-05-17T02:15:30.013Z,11.16
2019-05-17T02:18:00.677Z,11.28
2019-05-17T02:20:31.343Z,11.24
2019-05-17T02:23:01.684Z,10.73
2019-05-17T02:25:32.100Z,10.85
2019-05-17T02:28:02.847Z,11.12
2019-05-17T02:30:33.917Z,11.54
2019-05-17T02:33:04.779Z,11.67
2019-05-17T02:35:35.583Z,10.90
2019-05-17T02:38:05.930Z,11.16
2019-05-17T02:40:36.334Z,10.79
2019-05-17T02:43:06.930Z,11.10
2019-05-17T02:45:37.270Z,10.72
2019-05-17T02:48:08.005Z,10.62
2019-05-17T02:50:38.356Z,10.68
2019-05-17T02:53:08.745Z,11.08
2019-05-17T02:55:39.478Z,11.17
2019-05-17T02:58:12.620Z,11.36
2019-05-17T03:00:44.317Z,11.41
2019-05-17T03:03:14.654Z,11.53
2019-05-17T03:05:45.427Z,11.64
2019-05-17T03:08:16.096Z,11.57
2019-05-17T03:10:46.518Z,11.57
2019-05-17T03:13:18.098Z,11.70
2019-05-17T03:15:48.684Z,11.71
2019-05-17T03:18:22.607Z,11.65
2019-05-17T03:20:52.528Z,11.76
2019-05-17T03:23:23.739Z,11.82
2019-05-17T03:25:54.382Z,11.76
2019-05-17T03:28:25.326Z,11.69
2019-05-17T03:30:57.174Z,11.45
2019-05-17T03:33:35.127Z,11.06
2019-05-17T03:36:06.109Z,11.30
2019-05-17T03:38:34.605Z,11.32
2019-05-17T03:41:17.666Z,11.44
2019-05-17T03:43:41.246Z,11.90
2019-05-17T03:46:13.860Z,11.94
2019-05-17T03:48:43.698Z,12.13
2019-05-17T03:51:14.618Z,12.19
2019-05-17T03:53:45.358Z,12.17
2019-05-17T03:56:15.729Z,12.13
2019-05-17T03:58:46.318Z,12.04
2019-05-17T04:01:16.954Z,11.93
2019-05-17T04:03:47.303Z,12.03
2019-05-17T04:06:17.681Z,11.97
2019-05-17T04:08:49.187Z,12.14
2019-05-17T04:11:27.811Z,11.61
2019-05-17T04:13:53.746Z,11.94
2019-05-17T04:16:24.191Z,11.92
2019-05-17T04:18:54.774Z,12.13
2019-05-17T04:21:25.453Z,12.37
2019-05-17T04:23:55.793Z,12.35
2019-05-17T04:26:26.439Z,12.37
2019-05-17T04:28:57.244Z,12.40
2019-05-17T04:31:30.838Z,12.24
2019-05-17T04:34:02.650Z,12.17
2019-05-17T04:36:32.381Z,12.42
2019-05-17T04:39:03.066Z,12.34
2019-05-17T04:41:45.023Z,12.13
2019-05-17T04:44:06.194Z,11.90
2019-05-17T04:46:36.769Z,12.33
2019-05-17T04:49:07.134Z,12.18
2019-05-17T04:51:37.952Z,12.46
2019-05-17T04:54:08.824Z,12.70
2019-05-17T04:56:42.447Z,12.75
2019-05-17T04:59:13.789Z,12.86
2019-05-17T05:01:43.942Z,12.66
2019-05-17T05:04:15.582Z,12.56
2019-05-17T05:06:46.104Z,12.40
2019-05-17T05:09:16.849Z,12.57
2019-05-17T05:11:59.623Z,12.57
2019-05-17T05:14:19.648Z,12.76
2019-05-17T05:16:52.808Z,12.68
2019-05-17T05:19:22.508Z,12.71
2019-05-17T05:21:52.780Z,12.54
2019-05-17T05:24:23.332Z,12.03
2019-05-17T05:26:53.723Z,12.44
2019-05-17T05:29:24.489Z,12.75
2019-05-17T05:31:54.817Z,12.78
2019-05-17T05:34:25.114Z,12.97
2019-05-17T05:36:55.795Z,12.15
2019-05-17T05:39:26.296Z,12.54
2019-05-17T05:42:06.837Z,12.25
2019-05-17T05:44:29.004Z,12.67
2019-05-17T05:47:01.992Z,12.22
2019-05-17T05:49:32.055Z,12.01
2019-05-17T05:52:03.210Z,11.99
2019-05-17T05:54:34.043Z,12.82
2019-05-17T05:57:04.361Z,12.77
2019-05-17T05:59:35.524Z,12.13
2019-05-17T06:02:05.823Z,12.53
2019-05-17T06:04:36.477Z,12.56
2019-05-17T06:07:07.014Z,12.76
2019-05-17T06:09:37.359Z,13.02
2019-05-17T06:12:22.700Z,13.10
2019-05-17T06:14:41.743Z,12.89
2019-05-17T06:17:12.588Z,12.52
2019-05-17T06:19:43.196Z,12.88
2019-05-17T06:22:14.015Z,12.54
2019-05-17T06:24:44.524Z,13.39
2019-05-17T06:27:14.929Z,13.51
2019-05-17T06:29:45.469Z,12.99
2019-05-17T06:32:16.106Z,13.50
2019-05-17T06:34:46.832Z,13.34
2019-05-17T06:37:17.162Z,12.96
2019-05-17T06:39:47.583Z,13.56
2019-05-17T06:42:18.308Z,13.95
2019-05-17T06:44:48.677Z,14.28
2019-05-17T06:47:19.118Z,13.98
2019-05-17T06:49:50.616Z,13.68
2019-05-17T06:52:22.569Z,13.69
2019-05-17T06:54:53.149Z,14.00
2019-05-17T06:57:23.666Z,13.88
2019-05-17T06:59:54.048Z,13.92
2019-05-17T07:02:26.401Z,14.28
2019-05-17T07:04:58.370Z,14.54
2019-05-17T07:07:30.378Z,14.49
2019-05-17T07:10:01.583Z,15.20
2019-05-17T07:12:31.912Z,15.22
2019-05-17T07:15:02.324Z,14.93
2019-05-17T07:17:33.063Z,15.04
2019-05-17T07:20:03.608Z,14.84
2019-05-17T07:22:34.054Z,15.12
2019-05-17T07:25:05.080Z,15.39
2019-05-17T07:27:41.323Z,15.07
2019-05-17T07:30:09.957Z,15.36
2019-05-17T07:32:41.035Z,15.71
2019-05-17T07:35:11.524Z,15.13
2019-05-17T07:37:42.336Z,15.28
2019-05-17T07:40:13.201Z,16.04
2019-05-17T07:42:43.550Z,15.93
2019-05-17T07:45:16.118Z,15.21
2019-05-17T07:47:46.928Z,16.08
2019-05-17T07:50:19.942Z,16.47
2019-05-17T07:52:50.256Z,16.70
2019-05-17T07:55:22.997Z,16.31
2019-05-17T07:57:53.748Z,16.94
2019-05-17T08:00:24.270Z,17.51
2019-05-17T08:02:55.079Z,17.09
2019-05-17T08:05:25.432Z,17.36
2019-05-17T08:07:56.113Z,18.30
2019-05-17T08:10:26.489Z,18.30
2019-05-17T08:12:57.174Z,18.30
2019-05-17T08:15:30.324Z,17.69
2019-05-17T08:18:01.888Z,17.51
2019-05-17T08:20:32.347Z,17.45
2019-05-17T08:23:05.165Z,17.23
2019-05-17T08:25:51.375Z,16.76
2019-05-17T08:28:10.992Z,16.76
2019-05-17T08:30:41.873Z,16.74
2019-05-17T08:33:12.256Z,17.16
2019-05-17T08:35:42.622Z,17.46
2019-05-17T08:38:13.378Z,17.68
2019-05-17T08:40:43.930Z,18.40
2019-05-17T08:43:14.668Z,18.40
2019-05-17T08:45:45.030Z,18.83
2019-05-17T08:48:15.513Z,19.22
2019-05-17T08:50:46.324Z,18.82
2019-05-17T08:53:16.717Z,18.72
2019-05-17T08:55:47.076Z,18.40
2019-05-17T08:58:21.289Z,18.86
2019-05-17T09:00:50.593Z,18.85
2019-05-17T09:03:21.085Z,18.87
2019-05-17T09:05:52.781Z,18.91
2019-05-17T09:08:23.493Z,18.75
2019-05-17T09:10:53.819Z,19.05
2019-05-17T09:13:24.381Z,19.20
2019-05-17T09:15:55.249Z,19.15
2019-05-17T09:18:25.606Z,18.56
2019-05-17T09:20:57.323Z,19.19
2019-05-17T09:23:30.209Z,19.47
2019-05-17T09:26:00.178Z,19.60
2019-05-17T09:28:30.550Z,19.83
2019-05-17T09:31:01.509Z,20.33
2019-05-17T09:33:31.899Z,20.60
2019-05-17T09:36:02.260Z,20.60
2019-05-17T09:38:32.987Z,20.45
2019-05-17T09:41:03.552Z,20.67
2019-05-17T09:43:34.350Z,21.18
2019-05-17T09:46:04.759Z,21.56
2019-05-17T09:48:35.187Z,21.67
2019-05-17T09:51:07.152Z,21.42
2019-05-17T09:53:39.925Z,21.54
2019-05-17T09:56:09.882Z,21.59
2019-05-17T09:58:40.643Z,22.02
2019-05-17T10:01:11.156Z,22.35
2019-05-17T10:03:41.699Z,22.89
2019-05-17T10:06:12.272Z,23.06
2019-05-17T10:08:43.186Z,22.92
2019-05-17T10:11:13.596Z,23.24
2019-05-17T10:13:44.346Z,23.56
2019-05-17T10:16:14.690Z,22.80
2019-05-17T10:18:45.427Z,23.75
2019-05-17T10:21:15.958Z,23.72
2019-05-17T10:23:46.265Z,23.41
2019-05-17T10:26:16.952Z,22.49
2019-05-17T10:28:47.432Z,22.73
2019-05-17T10:31:19.731Z,22.04
2019-05-17T10:33:50.247Z,21.73
2019-05-17T10:36:20.993Z,21.78
2019-05-17T10:38:51.386Z,22.05
2019-05-17T10:41:21.982Z,21.87
2019-05-17T10:43:52.621Z,22.15
2019-05-17T10:46:22.978Z,22.53
2019-05-17T10:48:53.712Z,22.54
2019-05-17T10:51:24.041Z,22.63
2019-05-17T10:53:54.798Z,23.11
2019-05-17T10:56:25.191Z,22.46
2019-05-17T10:58:55.522Z,22.75
2019-05-17T11:01:26.018Z,21.31
2019-05-17T11:03:56.802Z,21.98
2019-05-17T11:06:27.202Z,22.43
2019-05-17T11:08:59.486Z,21.07
2019-05-17T11:11:30.089Z,22.05
2019-05-17T11:14:00.521Z,21.78
2019-05-17T11:16:30.828Z,22.01
2019-05-17T11:19:01.534Z,22.07
2019-05-17T11:21:32.111Z,22.33
2019-05-17T11:24:02.459Z,22.29
2019-05-17T11:26:33.404Z,23.01
2019-05-17T11:29:04.236Z,23.28
2019-05-17T11:31:34.694Z,23.58
2019-05-17T11:34:05.359Z,23.45
2019-05-17T11:36:36.239Z,23.28
2019-05-17T11:39:07.633Z,23.73
2019-05-17T11:41:38.244Z,24.39
2019-05-17T11:44:09.027Z,24.75
2019-05-17T11:46:39.409Z,25.00
2019-05-17T11:49:09.770Z,25.27
2019-05-17T11:51:40.329Z,25.17
2019-05-17T11:54:10.750Z,25.24
2019-05-17T11:56:41.212Z,24.99
2019-05-17T11:59:11.704Z,25.10
2019-05-17T12:01:42.308Z,25.03
2019-05-17T12:04:13.070Z,24.75
2019-05-17T12:06:43.395Z,24.28
2019-05-17T12:09:13.814Z,23.15
2019-05-17T12:11:44.681Z,24.45
2019-05-17T12:14:15.002Z,24.23
2019-05-17T12:16:45.363Z,24.25
2019-05-17T12:19:16.051Z,24.30
2019-05-17T12:21:46.632Z,24.29
2019-05-17T12:24:17.265Z,24.34
2019-05-17T12:26:47.710Z,23.83
2019-05-17T12:29:18.165Z,23.37
2019-05-17T12:31:48.803Z,23.60
2019-05-17T12:34:19.289Z,23.48
2019-05-17T12:36:49.775Z,23.58
2019-05-17T12:39:20.547Z,23.38
2019-05-17T12:41:51.093Z,23.38
2019-05-17T12:44:21.600Z,22.66
2019-05-17T12:46:52.099Z,22.80
2019-05-17T12:49:22.892Z,22.86
2019-05-17T12:51:53.227Z,20.92
2019-05-17T12:54:23.982Z,22.51
2019-05-17T12:56:54.275Z,22.46
2019-05-17T12:59:25.012Z,22.48
2019-05-17T13:01:55.462Z,22.36
2019-05-17T13:04:25.834Z,22.16
2019-05-17T13:06:56.492Z,21.98
2019-05-17T13:09:27.314Z,22.11
2019-05-17T13:11:57.613Z,22.29
2019-05-17T13:14:28.304Z,22.71
2019-05-17T13:16:58.975Z,23.38
2019-05-17T13:19:29.276Z,23.63
2019-05-17T13:21:59.838Z,24.11
2019-05-17T13:24:30.291Z,24.66
2019-05-17T13:27:00.718Z,25.66
2019-05-17T13:29:31.239Z,25.51
2019-05-17T13:32:02.011Z,25.75
2019-05-17T13:34:32.457Z,26.32
2019-05-17T13:37:02.796Z,26.41
2019-05-17T13:39:33.457Z,27.37
2019-05-17T13:42:04.003Z,27.36
2019-05-17T13:44:34.406Z,27.27
2019-05-17T13:47:05.127Z,27.12
2019-05-17T13:49:35.847Z,26.90
2019-05-17T13:52:06.127Z,26.51
2019-05-17T13:54:36.576Z,26.83
2019-05-17T13:57:07.024Z,26.59
2019-05-17T13:59:37.436Z,26.01
2019-05-17T14:02:08.299Z,26.12
2019-05-17T14:04:38.746Z,26.09
2019-05-17T14:07:09.518Z,25.97
2019-05-17T14:09:40.166Z,25.27
2019-05-17T14:12:10.558Z,25.52
2019-05-17T14:14:41.301Z,25.07
2019-05-17T14:17:12.141Z,25.60
2019-05-17T14:19:42.490Z,24.71
2019-05-17T14:22:13.193Z,25.05
2019-05-17T14:24:43.698Z,24.75
2019-05-17T14:27:13.993Z,24.45
2019-05-17T14:29:44.492Z,23.71
2019-05-17T14:32:15.113Z,23.01
2019-05-17T14:34:45.893Z,22.45
2019-05-17T14:37:16.521Z,22.25
2019-05-17T14:39:46.871Z,22.01
2019-05-17T14:42:17.605Z,21.51
2019-05-17T14:44:48.465Z,21.05
2019-05-17T14:47:18.821Z,20.40
2019-05-17T14:49:51.197Z,20.25
2019-05-17T14:52:21.331Z,19.99
2019-05-17T14:54:51.687Z,19.68
2019-05-17T14:57:22.046Z,19.36
2019-05-17T14:59:52.907Z,19.14
2019-05-17T15:02:25.218Z,19.31
2019-05-17T15:04:55.923Z,19.04
2019-05-17T15:07:26.304Z,18.96
2019-05-17T15:09:57.887Z,18.59
2019-05-17T15:12:29.046Z,18.61
2019-05-17T15:14:59.590Z,18.61
2019-05-17T15:17:34.504Z,18.39
2019-05-17T15:20:02.659Z,18.13
2019-05-17T15:22:33.675Z,17.96
2019-05-17T15:25:05.623Z,17.85
2019-05-17T15:27:36.392Z,17.85
2019-05-17T15:30:07.440Z,17.87
2019-05-17T15:32:38.017Z,17.76
2019-05-17T15:35:08.845Z,17.63
2019-05-17T15:37:39.237Z,17.63
2019-05-17T15:40:10.410Z,17.52
2019-05-17T15:42:44.633Z,17.43
2019-05-17T15:45:13.546Z,17.25
2019-05-17T15:47:44.401Z,17.10
2019-05-17T15:50:15.496Z,17.19
2019-05-17T15:52:45.895Z,17.09
2019-05-17T15:55:17.649Z,17.08
2019-05-17T15:57:48.610Z,17.22
2019-05-17T16:00:19.452Z,17.15
2019-05-17T16:02:50.257Z,17.24
2019-05-17T16:05:20.773Z,17.19
2019-05-17T16:07:51.162Z,17.47
2019-05-17T16:10:22.135Z,16.82
2019-05-17T16:13:02.345Z,17.38
2019-05-17T16:15:24.923Z,17.69
2019-05-17T16:17:55.379Z,17.90
2019-05-17T16:20:25.739Z,17.90
2019-05-17T16:22:56.323Z,17.89
2019-05-17T16:25:27.104Z,17.63
2019-05-17T16:27:57.434Z,17.45
2019-05-17T16:30:27.929Z,16.71
2019-05-17T16:32:58.781Z,16.71
2019-05-17T16:35:29.139Z,16.19
2019-05-17T16:37:59.618Z,16.27
2019-05-17T16:40:30.297Z,16.74
2019-05-17T16:43:16.793Z,16.65
2019-05-17T16:45:33.573Z,16.37
2019-05-17T16:48:03.934Z,16.44
2019-05-17T16:50:34.259Z,16.72
2019-05-17T16:53:06.892Z,16.86
2019-05-17T16:55:37.197Z,16.79
2019-05-17T16:58:07.615Z,16.75
2019-05-17T17:00:40.392Z,17.11
2019-05-17T17:03:10.961Z,17.19
2019-05-17T17:05:41.921Z,17.29
2019-05-17T17:08:12.655Z,17.13
2019-05-17T17:10:43.068Z,17.27
2019-05-17T17:13:13.431Z,17.27
2019-05-17T17:15:43.802Z,17.42
2019-05-17T17:18:14.196Z,17.42
2019-05-17T17:20:45.205Z,17.12
2019-05-17T17:23:15.841Z,17.40
2019-05-17T17:25:46.198Z,17.40
2019-05-17T17:28:16.950Z,17.38
2019-05-17T17:30:47.622Z,17.08
2019-05-17T17:33:17.926Z,17.08
2019-05-17T17:35:48.696Z,17.03
2019-05-17T17:38:19.145Z,17.06
2019-05-17T17:40:49.496Z,16.87
2019-05-17T17:43:20.141Z,16.74
2019-05-17T17:45:51.073Z,16.81
2019-05-17T17:48:21.442Z,16.59
2019-05-17T17:50:51.824Z,16.56
2019-05-17T17:53:23.674Z,16.51
2019-05-17T17:55:54.087Z,16.52
2019-05-17T17:58:24.467Z,16.41
2019-05-17T18:00:55.071Z,16.35
2019-05-17T18:03:25.723Z,16.28
2019-05-17T18:05:56.128Z,16.14
2019-05-17T18:08:26.784Z,16.02
2019-05-17T18:10:57.461Z,15.91
2019-05-17T18:13:27.824Z,15.87
2019-05-17T18:15:58.536Z,15.69
2019-05-17T18:18:28.968Z,15.51
2019-05-17T18:20:59.789Z,15.44
2019-05-17T18:23:30.220Z,15.41
2019-05-17T18:26:01.350Z,15.32
2019-05-17T18:28:32.049Z,15.27
2019-05-17T18:31:02.724Z,15.32
2019-05-17T18:33:33.099Z,15.21
2019-05-17T18:36:03.925Z,15.10
2019-05-17T18:38:35.426Z,15.25
2019-05-17T18:41:06.176Z,15.21
2019-05-17T18:43:36.872Z,14.98
2019-05-17T18:46:07.749Z,15.09
2019-05-17T18:48:38.056Z,14.75
2019-05-17T18:51:08.454Z,14.68
2019-05-17T18:53:38.775Z,14.86
2019-05-17T18:56:09.563Z,14.67
2019-05-17T18:58:40.094Z,14.48
2019-05-17T19:01:11.670Z,14.29
2019-05-17T19:03:42.266Z,14.18
2019-05-17T19:06:14.014Z,14.18
2019-05-17T19:08:44.392Z,13.88
2019-05-17T19:11:14.935Z,13.86
2019-05-17T19:13:45.688Z,14.15
2019-05-17T19:16:16.000Z,14.18
2019-05-17T19:18:46.550Z,14.16
2019-05-17T19:21:17.022Z,13.95
2019-05-17T19:23:47.852Z,13.88
2019-05-17T19:26:18.710Z,13.75
2019-05-17T19:28:49.117Z,13.88
2019-05-17T19:31:19.692Z,13.98
2019-05-17T19:33:50.327Z,14.03
2019-05-17T19:36:20.754Z,14.07
2019-05-17T19:38:51.205Z,14.03
2019-05-17T19:41:22.017Z,13.99
2019-05-17T19:43:52.472Z,13.85
2019-05-17T19:46:22.779Z,14.07
2019-05-17T19:48:53.248Z,14.26
2019-05-17T19:51:23.711Z,14.19
2019-05-17T19:53:54.456Z,14.14
2019-05-17T19:56:24.790Z,13.90
2019-05-17T19:58:55.399Z,13.95
2019-05-17T20:01:26.427Z,14.06
2019-05-17T20:03:57.810Z,14.17
2019-05-17T20:06:28.220Z,14.25
2019-05-17T20:08:58.922Z,14.24
2019-05-17T20:11:34.343Z,14.31
2019-05-17T20:14:01.547Z,14.35
2019-05-17T20:16:32.532Z,14.17
2019-05-17T20:19:02.927Z,14.10
2019-05-17T20:21:33.280Z,13.93
2019-05-17T20:24:03.782Z,14.20
2019-05-17T20:26:34.299Z,13.86
2019-05-17T20:29:05.117Z,13.92
2019-05-17T20:31:35.701Z,13.98
2019-05-17T20:34:06.179Z,13.84
2019-05-17T20:36:37.027Z,13.20
2019-05-17T20:39:08.585Z,13.50
2019-05-17T20:41:39.061Z,13.63
2019-05-17T20:44:09.472Z,13.01
2019-05-17T20:46:39.927Z,12.92
2019-05-17T20:49:10.228Z,12.57
2019-05-17T20:51:40.773Z,12.55
2019-05-17T20:54:11.302Z,12.81
2019-05-17T20:56:41.645Z,13.00
2019-05-17T20:59:12.262Z,13.30
2019-05-17T21:01:42.578Z,13.26
2019-05-17T21:04:13.168Z,12.81
2019-05-17T21:06:43.947Z,12.35
2019-05-17T21:09:14.244Z,12.33
2019-05-17T21:11:44.780Z,12.16
2019-05-17T21:14:15.206Z,11.98
2019-05-17T21:16:45.505Z,12.06
2019-05-17T21:19:15.866Z,12.27
2019-05-17T21:21:46.549Z,12.07
2019-05-17T21:24:16.893Z,11.72
2019-05-17T21:26:47.191Z,11.67
2019-05-17T21:29:17.792Z,11.69
2019-05-17T21:31:48.323Z,11.66
2019-05-17T21:34:19.140Z,11.62
2019-05-17T21:36:49.449Z,11.47
2019-05-17T21:39:19.837Z,11.55
2019-05-17T21:41:50.512Z,11.43
2019-05-17T21:44:20.795Z,11.61
2019-05-17T21:47:03.709Z,11.60
2019-05-17T21:49:23.320Z,11.28
2019-05-17T21:51:53.805Z,11.27
2019-05-17T21:54:24.099Z,11.33
2019-05-17T21:56:54.844Z,11.51
2019-05-17T21:59:25.615Z,11.49
2019-05-17T22:01:56.230Z,11.62
2019-05-17T22:04:27.192Z,11.57
2019-05-17T22:06:57.794Z,11.56
2019-05-17T22:09:28.105Z,11.70
2019-05-17T22:12:01.557Z,11.80
2019-05-17T22:14:31.948Z,11.73
2019-05-17T22:17:02.257Z,11.52
2019-05-17T22:19:32.580Z,11.46
2019-05-17T22:22:03.367Z,11.08
2019-05-17T22:24:34.650Z,10.84
2019-05-17T22:27:05.002Z,10.79
2019-05-17T22:29:35.649Z,10.93
2019-05-17T22:32:06.352Z,10.60
2019-05-17T22:34:36.984Z,10.61
2019-05-17T22:37:07.310Z,10.61
2019-05-17T22:39:37.680Z,10.29
2019-05-17T22:42:08.609Z,10.28
2019-05-17T22:44:38.924Z,10.16
2019-05-17T22:47:09.286Z,10.26
2019-05-17T22:49:39.690Z,10.38
2019-05-17T22:52:10.260Z,10.56
2019-05-17T22:54:40.567Z,10.64
2019-05-17T22:57:11.410Z,10.70
2019-05-17T22:59:42.054Z,10.32
2019-05-17T23:02:12.501Z,10.32
2019-05-17T23:04:43.092Z,10.86
2019-05-17T23:07:13.453Z,11.12
2019-05-17T23:09:44.157Z,11.10
2019-05-17T23:12:14.630Z,10.69
2019-05-17T23:14:44.912Z,10.65
2019-05-17T23:17:15.709Z,10.84
2019-05-17T23:19:46.376Z,11.15
2019-05-17T23:22:16.704Z,11.23
2019-05-17T23:24:47.165Z,11.14
2019-05-17T23:27:17.758Z,11.00
2019-05-17T23:29:48.152Z,10.98
2019-05-17T23:32:18.633Z,10.77
2019-05-17T23:34:50.240Z,10.73
2019-05-17T23:37:20.578Z,10.49
2019-05-17T23:39:52.262Z,10.44
2019-05-17T23:42:22.570Z,10.34
2019-05-17T23:44:53.245Z,10.26
2019-05-17T23:47:23.680Z,10.45
2019-05-17T23:49:53.982Z,10.45
2019-05-17T23:52:24.497Z,10.50
2019-05-17T23:54:55.200Z,10.43
2019-05-17T23:57:25.573Z,10.51
2019-05-17T23:59:56.070Z,10.54
